sensor_id;sensor_type;location;lat;lon;timestamp;P1;durP1;ratioP1;P2;durP2;ratioP2
58637;SDS011;54976;51.510;7.522;2023-05-08T00:01:47;25.67;;;18.65;;
58637;SDS011;54976;51.510;7.522;2023-05-08T00:04:47;24.35;;;19.95;;
58637;SDS011;54976;51.510;7.522;2023-05-08T00:07:48;22.48;;;19.15;;
58637;SDS011;54976;51.510;7.522;2023-05-08T00:10:51;23.55;;;19.50;;
58637;SDS011;54976;51.510;7.522;2023-05-08T00:13:51;23.70;;;19.33;;
58637;SDS011;54976;51.510;7.522;2023-05-08T00:16:52;25.92;;;20.05;;
58637;SDS011;54976;51.510;7.522;2023-05-08T00:19:52;26.00;;;19.60;;
58637;SDS011;54976;51.510;7.522;2023-05-08T00:22:53;27.38;;;19.73;;
58637;SDS011;54976;51.510;7.522;2023-05-08T00:25:54;25.30;;;18.77;;
58637;SDS011;54976;51.510;7.522;2023-05-08T00:28:55;23.15;;;18.45;;
58637;SDS011;54976;51.510;7.522;2023-05-08T00:31:55;23.70;;;18.88;;
58637;SDS011;54976;51.510;7.522;2023-05-08T00:34:56;25.35;;;19.75;;
58637;SDS011;54976;51.510;7.522;2023-05-08T00:37:56;24.23;;;18.85;;
58637;SDS011;54976;51.510;7.522;2023-05-08T00:40:57;25.55;;;19.15;;
58637;SDS011;54976;51.510;7.522;2023-05-08T00:43:58;22.00;;;18.48;;
58637;SDS011;54976;51.510;7.522;2023-05-08T00:46:58;24.10;;;18.88;;
58637;SDS011;54976;51.510;7.522;2023-05-08T00:49:59;26.60;;;18.58;;
58637;SDS011;54976;51.510;7.522;2023-05-08T00:53:01;23.25;;;18.70;;
58637;SDS011;54976;51.510;7.522;2023-05-08T00:56:03;23.05;;;18.40;;
58637;SDS011;54976;51.510;7.522;2023-05-08T00:59:06;24.77;;;19.58;;
58637;SDS011;54976;51.510;7.522;2023-05-08T01:02:10;23.50;;;18.52;;
58637;SDS011;54976;51.510;7.522;2023-05-08T01:05:11;21.38;;;18.80;;
58637;SDS011;54976;51.510;7.522;2023-05-08T01:08:12;22.33;;;18.85;;
58637;SDS011;54976;51.510;7.522;2023-05-08T01:34:34;25.70;;;18.02;;
58637;SDS011;54976;51.510;7.522;2023-05-08T01:41:09;24.65;;;18.73;;
58637;SDS011;54976;51.510;7.522;2023-05-08T01:44:18;22.65;;;17.25;;
58637;SDS011;54976;51.510;7.522;2023-05-08T01:47:25;19.95;;;17.85;;
58637;SDS011;54976;51.510;7.522;2023-05-08T01:50:30;21.90;;;19.35;;
58637;SDS011;54976;51.510;7.522;2023-05-08T01:53:37;24.00;;;18.40;;
58637;SDS011;54976;51.510;7.522;2023-05-08T01:56:42;22.00;;;17.55;;
58637;SDS011;54976;51.510;7.522;2023-05-08T01:59:44;23.75;;;18.25;;
58637;SDS011;54976;51.510;7.522;2023-05-08T02:02:46;20.52;;;17.50;;
58637;SDS011;54976;51.510;7.522;2023-05-08T02:05:49;21.77;;;18.45;;
58637;SDS011;54976;51.510;7.522;2023-05-08T02:08:51;23.15;;;17.90;;
58637;SDS011;54976;51.510;7.522;2023-05-08T02:11:53;23.05;;;19.02;;
58637;SDS011;54976;51.510;7.522;2023-05-08T02:14:55;23.30;;;18.27;;
58637;SDS011;54976;51.510;7.522;2023-05-08T02:17:57;26.17;;;20.15;;
58637;SDS011;54976;51.510;7.522;2023-05-08T02:20:59;22.05;;;18.85;;
58637;SDS011;54976;51.510;7.522;2023-05-08T02:24:03;24.70;;;19.17;;
58637;SDS011;54976;51.510;7.522;2023-05-08T02:27:05;19.00;;;16.80;;
58637;SDS011;54976;51.510;7.522;2023-05-08T02:30:09;23.63;;;19.67;;
58637;SDS011;54976;51.510;7.522;2023-05-08T02:33:14;46.13;;;31.63;;
58637;SDS011;54976;51.510;7.522;2023-05-08T02:36:17;28.33;;;19.27;;
58637;SDS011;54976;51.510;7.522;2023-05-08T02:39:18;20.73;;;18.52;;
58637;SDS011;54976;51.510;7.522;2023-05-08T02:42:23;22.45;;;18.08;;
58637;SDS011;54976;51.510;7.522;2023-05-08T02:45:24;25.05;;;18.70;;
58637;SDS011;54976;51.510;7.522;2023-05-08T02:48:32;25.27;;;18.80;;
58637;SDS011;54976;51.510;7.522;2023-05-08T02:51:49;24.08;;;19.10;;
58637;SDS011;54976;51.510;7.522;2023-05-08T02:55:04;24.27;;;18.05;;
58637;SDS011;54976;51.510;7.522;2023-05-08T02:58:39;20.27;;;17.58;;
58637;SDS011;54976;51.510;7.522;2023-05-08T03:01:51;20.05;;;17.88;;
58637;SDS011;54976;51.510;7.522;2023-05-08T03:05:02;19.55;;;17.08;;
58637;SDS011;54976;51.510;7.522;2023-05-08T03:08:18;21.83;;;17.92;;
58637;SDS011;54976;51.510;7.522;2023-05-08T03:11:25;19.73;;;17.58;;
58637;SDS011;54976;51.510;7.522;2023-05-08T03:14:34;20.35;;;17.88;;
58637;SDS011;54976;51.510;7.522;2023-05-08T03:17:42;23.85;;;18.30;;
58637;SDS011;54976;51.510;7.522;2023-05-08T03:20:46;21.17;;;18.70;;
58637;SDS011;54976;51.510;7.522;2023-05-08T03:23:50;27.80;;;19.75;;
58637;SDS011;54976;51.510;7.522;2023-05-08T03:26:52;23.85;;;19.48;;
58637;SDS011;54976;51.510;7.522;2023-05-08T03:29:54;24.75;;;19.90;;
58637;SDS011;54976;51.510;7.522;2023-05-08T03:32:56;25.70;;;19.92;;
58637;SDS011;54976;51.510;7.522;2023-05-08T03:35:58;22.95;;;18.80;;
58637;SDS011;54976;51.510;7.522;2023-05-08T03:38:59;21.83;;;18.38;;
58637;SDS011;54976;51.510;7.522;2023-05-08T03:42:00;25.73;;;18.88;;
58637;SDS011;54976;51.510;7.522;2023-05-08T03:45:01;24.48;;;19.13;;
58637;SDS011;54976;51.510;7.522;2023-05-08T03:48:03;26.30;;;19.30;;
58637;SDS011;54976;51.510;7.522;2023-05-08T03:51:04;26.73;;;19.73;;
58637;SDS011;54976;51.510;7.522;2023-05-08T03:54:05;23.73;;;19.80;;
58637;SDS011;54976;51.510;7.522;2023-05-08T03:57:06;28.05;;;21.55;;
58637;SDS011;54976;51.510;7.522;2023-05-08T04:00:13;26.67;;;21.70;;
58637;SDS011;54976;51.510;7.522;2023-05-08T04:09:58;29.92;;;21.27;;
58637;SDS011;54976;51.510;7.522;2023-05-08T04:13:06;24.02;;;19.98;;
58637;SDS011;54976;51.510;7.522;2023-05-08T04:16:12;25.05;;;20.75;;
58637;SDS011;54976;51.510;7.522;2023-05-08T04:19:26;23.88;;;19.92;;
58637;SDS011;54976;51.510;7.522;2023-05-08T04:22:32;27.35;;;21.83;;
58637;SDS011;54976;51.510;7.522;2023-05-08T04:25:35;31.90;;;22.38;;
58637;SDS011;54976;51.510;7.522;2023-05-08T04:28:36;31.58;;;22.27;;
58637;SDS011;54976;51.510;7.522;2023-05-08T04:31:38;32.42;;;22.33;;
58637;SDS011;54976;51.510;7.522;2023-05-08T04:34:39;30.15;;;22.02;;
58637;SDS011;54976;51.510;7.522;2023-05-08T04:37:40;35.25;;;22.17;;
58637;SDS011;54976;51.510;7.522;2023-05-08T04:40:44;34.65;;;22.33;;
58637;SDS011;54976;51.510;7.522;2023-05-08T04:43:44;27.42;;;21.23;;
58637;SDS011;54976;51.510;7.522;2023-05-08T04:46:45;24.77;;;20.58;;
58637;SDS011;54976;51.510;7.522;2023-05-08T04:49:45;27.60;;;21.77;;
58637;SDS011;54976;51.510;7.522;2023-05-08T04:52:46;24.80;;;20.50;;
58637;SDS011;54976;51.510;7.522;2023-05-08T04:55:47;26.52;;;21.15;;
58637;SDS011;54976;51.510;7.522;2023-05-08T04:58:47;32.60;;;21.65;;
58637;SDS011;54976;51.510;7.522;2023-05-08T05:01:48;35.65;;;22.27;;
58637;SDS011;54976;51.510;7.522;2023-05-08T05:04:48;29.35;;;22.90;;
58637;SDS011;54976;51.510;7.522;2023-05-08T05:07:50;27.70;;;21.77;;
58637;SDS011;54976;51.510;7.522;2023-05-08T05:10:50;26.85;;;21.88;;
58637;SDS011;54976;51.510;7.522;2023-05-08T05:13:51;27.67;;;20.23;;
58637;SDS011;54976;51.510;7.522;2023-05-08T05:16:52;26.80;;;20.15;;
58637;SDS011;54976;51.510;7.522;2023-05-08T05:19:52;25.33;;;19.00;;
58637;SDS011;54976;51.510;7.522;2023-05-08T05:22:53;27.45;;;19.52;;
58637;SDS011;54976;51.510;7.522;2023-05-08T05:25:54;23.85;;;20.00;;
58637;SDS011;54976;51.510;7.522;2023-05-08T05:28:54;25.80;;;19.48;;
58637;SDS011;54976;51.510;7.522;2023-05-08T05:31:55;24.55;;;19.02;;
58637;SDS011;54976;51.510;7.522;2023-05-08T05:34:55;26.50;;;20.25;;
58637;SDS011;54976;51.510;7.522;2023-05-08T05:37:56;25.42;;;20.85;;
58637;SDS011;54976;51.510;7.522;2023-05-08T05:40:57;28.45;;;21.17;;
58637;SDS011;54976;51.510;7.522;2023-05-08T05:43:57;26.50;;;20.52;;
58637;SDS011;54976;51.510;7.522;2023-05-08T05:46:58;26.73;;;19.38;;
58637;SDS011;54976;51.510;7.522;2023-05-08T05:49:58;28.50;;;18.65;;
58637;SDS011;54976;51.510;7.522;2023-05-08T05:52:59;21.83;;;18.30;;
58637;SDS011;54976;51.510;7.522;2023-05-08T05:56:00;23.67;;;17.85;;
58637;SDS011;54976;51.510;7.522;2023-05-08T05:59:00;26.88;;;18.67;;
58637;SDS011;54976;51.510;7.522;2023-05-08T06:02:01;23.38;;;19.70;;
58637;SDS011;54976;51.510;7.522;2023-05-08T06:05:02;23.88;;;18.02;;
58637;SDS011;54976;51.510;7.522;2023-05-08T06:08:03;19.33;;;17.30;;
58637;SDS011;54976;51.510;7.522;2023-05-08T06:11:04;28.45;;;18.02;;
58637;SDS011;54976;51.510;7.522;2023-05-08T06:14:05;23.00;;;17.83;;
58637;SDS011;54976;51.510;7.522;2023-05-08T06:17:05;20.08;;;16.23;;
58637;SDS011;54976;51.510;7.522;2023-05-08T06:20:06;19.33;;;17.08;;
58637;SDS011;54976;51.510;7.522;2023-05-08T06:23:07;20.85;;;15.95;;
58637;SDS011;54976;51.510;7.522;2023-05-08T06:26:08;23.88;;;16.30;;
58637;SDS011;54976;51.510;7.522;2023-05-08T06:29:09;20.92;;;15.32;;
58637;SDS011;54976;51.510;7.522;2023-05-08T06:32:09;20.90;;;14.85;;
58637;SDS011;54976;51.510;7.522;2023-05-08T06:35:10;27.98;;;15.93;;
58637;SDS011;54976;51.510;7.522;2023-05-08T06:38:11;25.90;;;15.68;;
58637;SDS011;54976;51.510;7.522;2023-05-08T06:41:11;22.52;;;15.57;;
58637;SDS011;54976;51.510;7.522;2023-05-08T06:44:12;31.40;;;15.73;;
58637;SDS011;54976;51.510;7.522;2023-05-08T06:47:12;20.40;;;14.80;;
58637;SDS011;54976;51.510;7.522;2023-05-08T06:50:13;16.98;;;14.27;;
58637;SDS011;54976;51.510;7.522;2023-05-08T06:53:14;17.80;;;14.35;;
58637;SDS011;54976;51.510;7.522;2023-05-08T06:56:15;16.83;;;13.10;;
58637;SDS011;54976;51.510;7.522;2023-05-08T06:59:15;18.58;;;13.70;;
58637;SDS011;54976;51.510;7.522;2023-05-08T07:02:16;12.40;;;10.32;;
58637;SDS011;54976;51.510;7.522;2023-05-08T07:05:17;13.43;;;10.40;;
58637;SDS011;54976;51.510;7.522;2023-05-08T07:08:18;17.60;;;10.27;;
58637;SDS011;54976;51.510;7.522;2023-05-08T07:11:19;17.55;;;10.73;;
58637;SDS011;54976;51.510;7.522;2023-05-08T07:14:19;12.13;;;10.25;;
58637;SDS011;54976;51.510;7.522;2023-05-08T07:17:20;19.48;;;11.13;;
58637;SDS011;54976;51.510;7.522;2023-05-08T07:20:21;14.73;;;10.35;;
58637;SDS011;54976;51.510;7.522;2023-05-08T07:23:23;17.42;;;10.70;;
58637;SDS011;54976;51.510;7.522;2023-05-08T07:26:23;14.88;;;10.57;;
58637;SDS011;54976;51.510;7.522;2023-05-08T07:29:24;12.88;;;10.05;;
58637;SDS011;54976;51.510;7.522;2023-05-08T07:32:26;20.48;;;11.13;;
58637;SDS011;54976;51.510;7.522;2023-05-08T07:35:26;12.05;;;9.52;;
58637;SDS011;54976;51.510;7.522;2023-05-08T07:38:28;11.25;;;9.88;;
58637;SDS011;54976;51.510;7.522;2023-05-08T07:41:29;12.90;;;9.38;;
58637;SDS011;54976;51.510;7.522;2023-05-08T07:44:32;9.63;;;8.07;;
58637;SDS011;54976;51.510;7.522;2023-05-08T07:47:33;8.48;;;7.38;;
58637;SDS011;54976;51.510;7.522;2023-05-08T07:50:33;9.27;;;8.18;;
58637;SDS011;54976;51.510;7.522;2023-05-08T07:53:35;13.70;;;8.05;;
58637;SDS011;54976;51.510;7.522;2023-05-08T07:56:36;10.80;;;6.68;;
58637;SDS011;54976;51.510;7.522;2023-05-08T07:59:36;8.73;;;6.07;;
58637;SDS011;54976;51.510;7.522;2023-05-08T08:02:37;9.57;;;5.72;;
58637;SDS011;54976;51.510;7.522;2023-05-08T08:05:38;6.75;;;5.55;;
58637;SDS011;54976;51.510;7.522;2023-05-08T08:08:39;10.23;;;5.10;;
58637;SDS011;54976;51.510;7.522;2023-05-08T08:11:40;5.30;;;4.65;;
58637;SDS011;54976;51.510;7.522;2023-05-08T08:14:40;5.03;;;4.07;;
58637;SDS011;54976;51.510;7.522;2023-05-08T08:17:41;6.25;;;4.57;;
58637;SDS011;54976;51.510;7.522;2023-05-08T08:20:41;7.70;;;4.38;;
58637;SDS011;54976;51.510;7.522;2023-05-08T08:23:43;6.07;;;4.10;;
58637;SDS011;54976;51.510;7.522;2023-05-08T08:26:43;4.53;;;4.10;;
58637;SDS011;54976;51.510;7.522;2023-05-08T08:29:44;7.97;;;4.50;;
58637;SDS011;54976;51.510;7.522;2023-05-08T08:32:45;5.72;;;4.50;;
58637;SDS011;54976;51.510;7.522;2023-05-08T08:35:45;10.60;;;4.25;;
58637;SDS011;54976;51.510;7.522;2023-05-08T08:38:46;6.40;;;3.80;;
58637;SDS011;54976;51.510;7.522;2023-05-08T08:41:47;11.50;;;4.68;;
58637;SDS011;54976;51.510;7.522;2023-05-08T08:44:47;6.78;;;3.90;;
58637;SDS011;54976;51.510;7.522;2023-05-08T08:47:48;4.32;;;3.92;;
58637;SDS011;54976;51.510;7.522;2023-05-08T08:50:52;4.68;;;3.75;;
58637;SDS011;54976;51.510;7.522;2023-05-08T08:54:02;4.38;;;3.47;;
58637;SDS011;54976;51.510;7.522;2023-05-08T08:57:06;10.25;;;3.45;;
58637;SDS011;54976;51.510;7.522;2023-05-08T09:00:09;4.55;;;3.13;;
58637;SDS011;54976;51.510;7.522;2023-05-08T09:03:11;6.97;;;3.25;;
58637;SDS011;54976;51.510;7.522;2023-05-08T09:06:12;5.80;;;3.58;;
58637;SDS011;54976;51.510;7.522;2023-05-08T09:09:13;6.38;;;4.13;;
58637;SDS011;54976;51.510;7.522;2023-05-08T09:12:13;4.78;;;3.25;;
58637;SDS011;54976;51.510;7.522;2023-05-08T09:15:14;5.30;;;3.42;;
58637;SDS011;54976;51.510;7.522;2023-05-08T09:18:15;9.57;;;4.60;;
58637;SDS011;54976;51.510;7.522;2023-05-08T09:21:16;6.55;;;4.80;;
58637;SDS011;54976;51.510;7.522;2023-05-08T09:24:17;8.18;;;4.85;;
58637;SDS011;54976;51.510;7.522;2023-05-08T09:27:21;4.90;;;4.07;;
58637;SDS011;54976;51.510;7.522;2023-05-08T09:30:23;4.82;;;4.32;;
58637;SDS011;54976;51.510;7.522;2023-05-08T09:33:26;4.13;;;3.53;;
58637;SDS011;54976;51.510;7.522;2023-05-08T09:36:27;6.68;;;3.90;;
58637;SDS011;54976;51.510;7.522;2023-05-08T09:39:30;4.75;;;3.90;;
58637;SDS011;54976;51.510;7.522;2023-05-08T09:42:36;3.83;;;3.53;;
58637;SDS011;54976;51.510;7.522;2023-05-08T09:45:37;4.80;;;3.88;;
58637;SDS011;54976;51.510;7.522;2023-05-08T09:48:40;7.93;;;3.50;;
58637;SDS011;54976;51.510;7.522;2023-05-08T09:51:41;4.75;;;3.72;;
58637;SDS011;54976;51.510;7.522;2023-05-08T09:54:58;4.68;;;3.55;;
58637;SDS011;54976;51.510;7.522;2023-05-08T09:57:59;4.88;;;3.40;;
58637;SDS011;54976;51.510;7.522;2023-05-08T10:01:00;3.90;;;3.20;;
58637;SDS011;54976;51.510;7.522;2023-05-08T10:04:01;3.78;;;3.30;;
58637;SDS011;54976;51.510;7.522;2023-05-08T10:07:03;5.25;;;3.50;;
58637;SDS011;54976;51.510;7.522;2023-05-08T10:10:03;6.93;;;3.00;;
58637;SDS011;54976;51.510;7.522;2023-05-08T10:13:05;2.90;;;2.55;;
58637;SDS011;54976;51.510;7.522;2023-05-08T10:16:06;6.07;;;3.13;;
58637;SDS011;54976;51.510;7.522;2023-05-08T10:19:13;6.22;;;2.72;;
58637;SDS011;54976;51.510;7.522;2023-05-08T10:22:15;3.80;;;3.30;;
58637;SDS011;54976;51.510;7.522;2023-05-08T10:25:19;4.47;;;3.50;;
58637;SDS011;54976;51.510;7.522;2023-05-08T10:31:35;5.97;;;3.00;;
58637;SDS011;54976;51.510;7.522;2023-05-08T10:34:39;3.85;;;2.80;;
58637;SDS011;54976;51.510;7.522;2023-05-08T10:37:41;3.53;;;2.75;;
58637;SDS011;54976;51.510;7.522;2023-05-08T10:40:44;4.95;;;3.35;;
58637;SDS011;54976;51.510;7.522;2023-05-08T10:43:47;6.40;;;3.95;;
58637;SDS011;54976;51.510;7.522;2023-05-08T10:46:53;3.97;;;3.28;;
58637;SDS011;54976;51.510;7.522;2023-05-08T10:50:04;3.72;;;3.20;;
58637;SDS011;54976;51.510;7.522;2023-05-08T10:56:45;5.45;;;3.95;;
58637;SDS011;54976;51.510;7.522;2023-05-08T10:59:47;6.80;;;4.40;;
58637;SDS011;54976;51.510;7.522;2023-05-08T11:02:48;9.32;;;5.35;;
58637;SDS011;54976;51.510;7.522;2023-05-08T11:05:50;5.85;;;5.30;;
58637;SDS011;54976;51.510;7.522;2023-05-08T11:08:51;10.55;;;5.43;;
58637;SDS011;54976;51.510;7.522;2023-05-08T11:11:58;6.78;;;4.85;;
58637;SDS011;54976;51.510;7.522;2023-05-08T11:15:07;8.07;;;5.30;;
58637;SDS011;54976;51.510;7.522;2023-05-08T11:18:09;6.22;;;5.03;;
58637;SDS011;54976;51.510;7.522;2023-05-08T11:21:19;6.78;;;5.10;;
58637;SDS011;54976;51.510;7.522;2023-05-08T11:24:31;12.23;;;5.50;;
58637;SDS011;54976;51.510;7.522;2023-05-08T11:27:36;6.53;;;4.20;;
58637;SDS011;54976;51.510;7.522;2023-05-08T11:31:04;6.45;;;4.15;;
58637;SDS011;54976;51.510;7.522;2023-05-08T11:34:43;10.15;;;4.15;;
58637;SDS011;54976;51.510;7.522;2023-05-08T11:41:10;7.32;;;3.90;;
58637;SDS011;54976;51.510;7.522;2023-05-08T11:44:23;5.43;;;3.72;;
58637;SDS011;54976;51.510;7.522;2023-05-08T11:47:25;4.13;;;3.60;;
58637;SDS011;54976;51.510;7.522;2023-05-08T11:50:35;3.80;;;3.30;;
58637;SDS011;54976;51.510;7.522;2023-05-08T11:53:36;8.52;;;3.15;;
58637;SDS011;54976;51.510;7.522;2023-05-08T11:56:37;4.13;;;3.83;;
58637;SDS011;54976;51.510;7.522;2023-05-08T11:59:39;8.43;;;3.65;;
58637;SDS011;54976;51.510;7.522;2023-05-08T12:02:41;6.75;;;3.25;;
58637;SDS011;54976;51.510;7.522;2023-05-08T12:05:42;8.25;;;3.25;;
58637;SDS011;54976;51.510;7.522;2023-05-08T12:08:43;5.75;;;3.58;;
58637;SDS011;54976;51.510;7.522;2023-05-08T12:11:44;5.88;;;3.58;;
58637;SDS011;54976;51.510;7.522;2023-05-08T12:14:48;7.30;;;3.58;;
58637;SDS011;54976;51.510;7.522;2023-05-08T12:17:59;9.88;;;3.63;;
58637;SDS011;54976;51.510;7.522;2023-05-08T12:21:01;6.90;;;3.15;;
58637;SDS011;54976;51.510;7.522;2023-05-08T12:24:05;4.47;;;2.83;;
58637;SDS011;54976;51.510;7.522;2023-05-08T12:27:07;4.20;;;3.58;;
58637;SDS011;54976;51.510;7.522;2023-05-08T12:30:12;5.38;;;2.50;;
58637;SDS011;54976;51.510;7.522;2023-05-08T12:33:13;4.28;;;3.25;;
58637;SDS011;54976;51.510;7.522;2023-05-08T12:36:15;4.18;;;2.70;;
58637;SDS011;54976;51.510;7.522;2023-05-08T12:39:16;4.90;;;3.30;;
58637;SDS011;54976;51.510;7.522;2023-05-08T12:42:17;3.78;;;2.92;;
58637;SDS011;54976;51.510;7.522;2023-05-08T12:45:22;8.60;;;3.38;;
58637;SDS011;54976;51.510;7.522;2023-05-08T12:48:25;3.10;;;2.80;;
58637;SDS011;54976;51.510;7.522;2023-05-08T12:51:28;4.00;;;2.95;;
58637;SDS011;54976;51.510;7.522;2023-05-08T12:57:35;3.70;;;2.80;;
58637;SDS011;54976;51.510;7.522;2023-05-08T13:03:44;4.35;;;2.88;;
58637;SDS011;54976;51.510;7.522;2023-05-08T13:06:54;3.55;;;3.20;;
58637;SDS011;54976;51.510;7.522;2023-05-08T13:09:59;3.53;;;2.80;;
58637;SDS011;54976;51.510;7.522;2023-05-08T13:13:03;5.43;;;3.05;;
58637;SDS011;54976;51.510;7.522;2023-05-08T13:16:04;7.05;;;3.05;;
58637;SDS011;54976;51.510;7.522;2023-05-08T13:19:06;4.63;;;2.78;;
58637;SDS011;54976;51.510;7.522;2023-05-08T13:22:06;4.25;;;2.92;;
58637;SDS011;54976;51.510;7.522;2023-05-08T13:25:07;6.85;;;3.13;;
58637;SDS011;54976;51.510;7.522;2023-05-08T13:28:08;3.97;;;2.83;;
58637;SDS011;54976;51.510;7.522;2023-05-08T13:31:09;5.22;;;3.20;;
58637;SDS011;54976;51.510;7.522;2023-05-08T13:34:10;6.65;;;3.10;;
58637;SDS011;54976;51.510;7.522;2023-05-08T13:37:10;4.72;;;2.95;;
58637;SDS011;54976;51.510;7.522;2023-05-08T13:40:11;3.63;;;2.72;;
58637;SDS011;54976;51.510;7.522;2023-05-08T13:43:12;3.55;;;3.25;;
58637;SDS011;54976;51.510;7.522;2023-05-08T13:46:13;4.07;;;3.13;;
58637;SDS011;54976;51.510;7.522;2023-05-08T13:49:14;7.07;;;3.70;;
58637;SDS011;54976;51.510;7.522;2023-05-08T13:52:15;10.27;;;3.25;;
58637;SDS011;54976;51.510;7.522;2023-05-08T13:55:16;5.60;;;3.45;;
58637;SDS011;54976;51.510;7.522;2023-05-08T13:58:18;3.60;;;3.10;;
58637;SDS011;54976;51.510;7.522;2023-05-08T14:01:19;4.45;;;2.97;;
58637;SDS011;54976;51.510;7.522;2023-05-08T14:04:19;5.47;;;3.88;;
58637;SDS011;54976;51.510;7.522;2023-05-08T14:07:20;4.30;;;3.67;;
58637;SDS011;54976;51.510;7.522;2023-05-08T14:10:21;7.15;;;4.43;;
58637;SDS011;54976;51.510;7.522;2023-05-08T14:13:21;6.75;;;4.57;;
58637;SDS011;54976;51.510;7.522;2023-05-08T14:16:22;4.72;;;4.10;;
58637;SDS011;54976;51.510;7.522;2023-05-08T14:19:22;7.85;;;4.38;;
58637;SDS011;54976;51.510;7.522;2023-05-08T14:22:23;5.75;;;3.75;;
58637;SDS011;54976;51.510;7.522;2023-05-08T14:25:24;6.30;;;3.85;;
58637;SDS011;54976;51.510;7.522;2023-05-08T14:28:24;7.07;;;4.15;;
58637;SDS011;54976;51.510;7.522;2023-05-08T14:31:25;6.72;;;4.28;;
58637;SDS011;54976;51.510;7.522;2023-05-08T14:34:26;6.28;;;4.10;;
58637;SDS011;54976;51.510;7.522;2023-05-08T14:37:26;4.50;;;4.10;;
58637;SDS011;54976;51.510;7.522;2023-05-08T14:40:27;5.10;;;4.22;;
58637;SDS011;54976;51.510;7.522;2023-05-08T14:43:27;6.32;;;4.45;;
58637;SDS011;54976;51.510;7.522;2023-05-08T14:46:28;6.70;;;4.43;;
58637;SDS011;54976;51.510;7.522;2023-05-08T14:49:29;6.07;;;4.53;;
58637;SDS011;54976;51.510;7.522;2023-05-08T14:52:30;7.07;;;5.20;;
58637;SDS011;54976;51.510;7.522;2023-05-08T14:55:31;7.75;;;5.07;;
58637;SDS011;54976;51.510;7.522;2023-05-08T14:58:31;9.85;;;5.28;;
58637;SDS011;54976;51.510;7.522;2023-05-08T15:01:32;10.48;;;5.30;;
58637;SDS011;54976;51.510;7.522;2023-05-08T15:04:33;10.02;;;5.13;;
58637;SDS011;54976;51.510;7.522;2023-05-08T15:07:34;9.93;;;4.97;;
58637;SDS011;54976;51.510;7.522;2023-05-08T15:10:35;11.57;;;5.40;;
58637;SDS011;54976;51.510;7.522;2023-05-08T15:13:36;5.90;;;5.30;;
58637;SDS011;54976;51.510;7.522;2023-05-08T15:16:36;6.25;;;5.00;;
58637;SDS011;54976;51.510;7.522;2023-05-08T15:19:37;6.57;;;5.05;;
58637;SDS011;54976;51.510;7.522;2023-05-08T15:22:37;8.98;;;5.22;;
58637;SDS011;54976;51.510;7.522;2023-05-08T15:25:39;8.63;;;5.53;;
58637;SDS011;54976;51.510;7.522;2023-05-08T15:28:40;6.50;;;5.25;;
58637;SDS011;54976;51.510;7.522;2023-05-08T15:31:41;6.22;;;4.78;;
58637;SDS011;54976;51.510;7.522;2023-05-08T15:34:41;7.60;;;5.25;;
58637;SDS011;54976;51.510;7.522;2023-05-08T15:37:42;4.95;;;4.47;;
58637;SDS011;54976;51.510;7.522;2023-05-08T15:40:42;5.50;;;4.75;;
58637;SDS011;54976;51.510;7.522;2023-05-08T15:43:43;5.80;;;4.88;;
58637;SDS011;54976;51.510;7.522;2023-05-08T15:46:44;6.47;;;4.97;;
58637;SDS011;54976;51.510;7.522;2023-05-08T15:49:45;6.40;;;4.20;;
58637;SDS011;54976;51.510;7.522;2023-05-08T15:52:45;4.78;;;4.22;;
58637;SDS011;54976;51.510;7.522;2023-05-08T15:55:46;5.05;;;4.22;;
58637;SDS011;54976;51.510;7.522;2023-05-08T15:58:46;6.30;;;4.57;;
58637;SDS011;54976;51.510;7.522;2023-05-08T16:01:47;6.57;;;3.97;;
58637;SDS011;54976;51.510;7.522;2023-05-08T16:04:47;4.68;;;3.53;;
58637;SDS011;54976;51.510;7.522;2023-05-08T16:07:48;4.30;;;3.85;;
58637;SDS011;54976;51.510;7.522;2023-05-08T16:10:52;6.57;;;4.07;;
58637;SDS011;54976;51.510;7.522;2023-05-08T16:13:53;5.32;;;3.80;;
58637;SDS011;54976;51.510;7.522;2023-05-08T16:16:54;7.20;;;4.25;;
58637;SDS011;54976;51.510;7.522;2023-05-08T16:19:55;5.28;;;4.10;;
58637;SDS011;54976;51.510;7.522;2023-05-08T16:22:55;5.57;;;4.10;;
58637;SDS011;54976;51.510;7.522;2023-05-08T16:25:56;5.82;;;4.00;;
58637;SDS011;54976;51.510;7.522;2023-05-08T16:28:57;5.30;;;4.60;;
58637;SDS011;54976;51.510;7.522;2023-05-08T16:31:57;5.68;;;4.35;;
58637;SDS011;54976;51.510;7.522;2023-05-08T16:34:58;6.90;;;4.50;;
58637;SDS011;54976;51.510;7.522;2023-05-08T16:37:58;5.00;;;4.55;;
58637;SDS011;54976;51.510;7.522;2023-05-08T16:41:02;4.95;;;4.47;;
58637;SDS011;54976;51.510;7.522;2023-05-08T16:44:04;6.72;;;4.32;;
58637;SDS011;54976;51.510;7.522;2023-05-08T16:47:05;7.32;;;4.63;;
58637;SDS011;54976;51.510;7.522;2023-05-08T16:50:06;8.85;;;4.30;;
58637;SDS011;54976;51.510;7.522;2023-05-08T16:53:07;6.78;;;4.30;;
58637;SDS011;54976;51.510;7.522;2023-05-08T16:56:07;7.10;;;4.60;;
58637;SDS011;54976;51.510;7.522;2023-05-08T16:59:08;5.50;;;4.95;;
58637;SDS011;54976;51.510;7.522;2023-05-08T17:02:08;6.53;;;4.95;;
58637;SDS011;54976;51.510;7.522;2023-05-08T17:05:10;5.13;;;4.63;;
58637;SDS011;54976;51.510;7.522;2023-05-08T17:08:11;9.75;;;5.63;;
58637;SDS011;54976;51.510;7.522;2023-05-08T17:11:12;9.80;;;5.25;;
58637;SDS011;54976;51.510;7.522;2023-05-08T17:14:12;8.65;;;5.22;;
58637;SDS011;54976;51.510;7.522;2023-05-08T17:17:13;5.60;;;5.10;;
58637;SDS011;54976;51.510;7.522;2023-05-08T17:20:14;9.23;;;4.90;;
58637;SDS011;54976;51.510;7.522;2023-05-08T17:23:14;7.40;;;5.25;;
58637;SDS011;54976;51.510;7.522;2023-05-08T17:26:15;6.03;;;5.03;;
58637;SDS011;54976;51.510;7.522;2023-05-08T17:29:15;9.25;;;5.68;;
58637;SDS011;54976;51.510;7.522;2023-05-08T17:32:16;9.10;;;5.93;;
58637;SDS011;54976;51.510;7.522;2023-05-08T17:35:17;7.75;;;5.72;;
58637;SDS011;54976;51.510;7.522;2023-05-08T17:38:17;6.80;;;5.60;;
58637;SDS011;54976;51.510;7.522;2023-05-08T17:41:18;6.40;;;5.80;;
58637;SDS011;54976;51.510;7.522;2023-05-08T17:44:19;7.68;;;6.00;;
58637;SDS011;54976;51.510;7.522;2023-05-08T17:47:19;7.95;;;6.25;;
58637;SDS011;54976;51.510;7.522;2023-05-08T17:50:20;6.82;;;5.90;;
58637;SDS011;54976;51.510;7.522;2023-05-08T17:53:21;8.45;;;5.95;;
58637;SDS011;54976;51.510;7.522;2023-05-08T17:56:21;6.65;;;6.03;;
58637;SDS011;54976;51.510;7.522;2023-05-08T17:59:22;10.77;;;5.97;;
58637;SDS011;54976;51.510;7.522;2023-05-08T18:02:23;10.38;;;6.13;;
58637;SDS011;54976;51.510;7.522;2023-05-08T18:05:23;12.68;;;6.45;;
58637;SDS011;54976;51.510;7.522;2023-05-08T18:08:24;10.55;;;6.85;;
58637;SDS011;54976;51.510;7.522;2023-05-08T18:11:24;7.75;;;6.13;;
58637;SDS011;54976;51.510;7.522;2023-05-08T18:14:27;12.68;;;6.95;;
58637;SDS011;54976;51.510;7.522;2023-05-08T18:17:29;7.70;;;6.22;;
58637;SDS011;54976;51.510;7.522;2023-05-08T18:20:30;10.73;;;6.70;;
58637;SDS011;54976;51.510;7.522;2023-05-08T18:23:30;9.80;;;7.22;;
58637;SDS011;54976;51.510;7.522;2023-05-08T18:26:31;8.75;;;7.22;;
58637;SDS011;54976;51.510;7.522;2023-05-08T18:29:32;9.88;;;7.40;;
58637;SDS011;54976;51.510;7.522;2023-05-08T18:32:32;14.43;;;6.80;;
58637;SDS011;54976;51.510;7.522;2023-05-08T18:35:34;9.88;;;7.50;;
58637;SDS011;54976;51.510;7.522;2023-05-08T18:38:34;12.95;;;7.25;;
58637;SDS011;54976;51.510;7.522;2023-05-08T18:41:35;8.70;;;7.70;;
58637;SDS011;54976;51.510;7.522;2023-05-08T18:44:35;10.50;;;8.02;;
58637;SDS011;54976;51.510;7.522;2023-05-08T18:47:36;12.85;;;8.00;;
58637;SDS011;54976;51.510;7.522;2023-05-08T18:50:37;11.77;;;7.82;;
58637;SDS011;54976;51.510;7.522;2023-05-08T18:53:37;11.25;;;7.18;;